Friday, August 22, 2014, 11:32 PM EDT

KSEG, Selinsgrove Penn Valley Airport

Location: Selinsgrove, PA, United States Lat: 40.817
Local Time: 11:32 PM EDT ( 3:32 GMT) Lon: -76.867
Time Zone: US/Eastern Elev: 449 ft

Show me the last for .
Show Decoded

2014-08-22 23:04 METAR KSEG 230304Z AUTO 00000KT 6SM -RA BR BKN023 OVC032 22/20 A3001 RMK AO2
                 P0001 T02170200 =
2014-08-22 22:53 METAR KSEG 230253Z AUTO 13003KT 5SM -RA BR SCT021 OVC032 22/20 A3001 RMK AO2
                 SLP159 P0005 60005 T02170200 51012 =
2014-08-22 21:53 METAR KSEG 230153Z AUTO 00000KT 9SM -RA OVC032 23/19 A3000 RMK AO2 RAB39 SLP157
                 P0000 T02280194 =
2014-08-22 21:01 METAR KSEG 230101Z AUTO 00000KT 9SM SCT029 BKN042 OVC050 23/19 A3000 RMK AO2
                 T02330189 =
2014-08-22 20:53 METAR KSEG 230053Z AUTO 18004KT 9SM BKN029 OVC044 23/19 A3000 RMK AO2 SLP154
                 T02330194 =
2014-08-22 20:23 METAR KSEG 230023Z AUTO VRB04KT 8SM BKN027 BKN032 OVC075 23/19 A2999 RMK AO2
                 T02330194 =
2014-08-22 20:15 METAR KSEG 230015Z AUTO 18004KT 8SM SCT027 BKN075 BKN095 23/19 A2999 RMK AO2
                 T02330194 =
2014-08-22 20:00 METAR KSEG 230000Z AUTO 00000KT 8SM VCTS FEW027 SCT036 BKN044 23/19 A2998 RMK
                 AO2 T02330194 =
2014-08-22 19:53 METAR KSEG 222353Z AUTO VRB04KT 7SM SCT027 BKN034 BKN075 23/19 A2998 RMK AO2 LTG
                 DSNT SW SLP148 60000 T02330194 10278 20233 51009 =
2014-08-22 19:48 METAR KSEG 222348Z AUTO 13004KT 7SM VCTS SCT026 BKN034 OVC080 24/20 A2998 RMK
                 AO2 LTG DSNT SW =
2014-08-22 19:22 METAR KSEG 222322Z AUTO 13004KT 7SM BKN028 BKN042 OVC080 24/20 A2997 RMK AO2 LTG
                 DSNT W T02390200 =
2014-08-22 18:53 METAR KSEG 222253Z AUTO 13004KT 7SM VCTS FEW050 BKN095 BKN110 24/20 A2995 RMK
                 AO2 SLP140 T02390200 =
2014-08-22 18:49 METAR KSEG 222249Z AUTO 14004KT 6SM VCTS HZ FEW065 BKN095 BKN120 24/20 A2995 RMK
                 AO2 =
2014-08-22 17:53 METAR KSEG 222153Z AUTO 18004KT 6SM HZ FEW032 SCT049 SCT100 26/20 A2997 RMK AO2
                 LTG DSNT NE RAB34E44 SLP145 P0000 T02610200 =
2014-08-22 16:53 METAR KSEG 222053Z AUTO 15005KT 7SM FEW028 FEW036 OVC080 26/20 A2996 RMK AO2 LTG
                 DSNT N AND NE RAE51 SLP140 P0000 60000 T02560200 55009 =
2014-08-22 16:28 METAR KSEG 222028Z AUTO 16003KT 7SM -RA SCT027 SCT060 OVC080 26/21 A2996 RMK AO2
                 LTG DSNT N P0000 T02560206 =
2014-08-22 16:11 METAR KSEG 222011Z AUTO 18007KT 7SM -RA BKN027 BKN035 BKN047 26/21 A2996 RMK AO2
                 LTG DSNT N P0000 T02560206 =
2014-08-22 15:53 METAR KSEG 221953Z AUTO 15006KT 7SM -RA FEW027 SCT036 BKN048 26/21 A2995 RMK AO2
                 LTG DSNT N RAB12 SLP139 P0000 T02610206 =
2014-08-22 14:53 METAR KSEG 221853Z AUTO 22004KT 6SM HZ FEW029 SCT049 OVC065 27/21 A2997 RMK AO2
                 SLP146 T02720206 =
2014-08-22 13:53 METAR KSEG 221753Z AUTO VRB06KT 6SM HZ FEW024 BKN042 BKN070 27/21 A2998 RMK AO2
                 SLP150 T02670206 10272 20211 58007 =
2014-08-22 12:53 METAR KSEG 221653Z AUTO 11004KT 6SM HZ FEW027 BKN110 26/20 A3000 RMK AO2 SLP155
                 T02610200 =
2014-08-22 12:27 METAR KSEG 221627Z AUTO 16004KT 7SM SCT023 27/19 A3000 RMK AO2 T02670194 =
2014-08-22 11:53 METAR KSEG 221553Z AUTO 14003KT 6SM HZ BKN024 BKN029 26/19 A3000 RMK AO2 SLP157
                 T02560194 =
2014-08-22 10:53 METAR KSEG 221453Z AUTO VRB03KT 6SM HZ CLR 26/20 A3002 RMK AO2 SLP160 T02560200
                 50001 =
2014-08-22 10:25 METAR KSEG 221425Z AUTO 00000KT 6SM HZ FEW018 FEW025 SCT039 24/21 A3002 RMK AO2
                 T02440206 =
2014-08-22 09:53 METAR KSEG 221353Z AUTO 17003KT 5SM HZ OVC019 23/20 A3003 RMK AO2 SLP166
                 T02330200 =
2014-08-22 09:38 METAR KSEG 221338Z AUTO VRB03KT 5SM HZ FEW009 BKN017 23/20 A3003 RMK AO2
                 T02330200 =
2014-08-22 08:53 METAR KSEG 221253Z AUTO 00000KT 4SM BR SCT006 SCT037 23/21 A3002 RMK AO2 SLP164
                 T02280206 =
2014-08-22 08:49 METAR KSEG 221249Z AUTO 00000KT 4SM HZ SCT006 23/20 A3003 RMK AO2 =
2014-08-22 08:42 METAR KSEG 221242Z AUTO 00000KT 3SM BR BKN005 22/20 A3002 RMK AO2 T02220200 =
2014-08-22 08:31 METAR KSEG 221231Z AUTO 00000KT 3SM BR OVC004 22/20 A3002 RMK AO2 T02220200 =
2014-08-22 07:53 METAR KSEG 221153Z AUTO 00000KT 2SM BR OVC004 21/19 A3001 RMK AO2 SLP160 70010
                 T02110194 10211 20200 53011 =
2014-08-22 06:53 METAR KSEG 221053Z AUTO 00000KT 1 1/2SM BR OVC005 21/19 A3000 RMK AO2 SLP156
                 T02060194 =
2014-08-22 06:37 METAR KSEG 221037Z AUTO 00000KT 1 3/4SM BR BKN005 OVC028 21/19 A3000 RMK AO2
                 T02060194 =
2014-08-22 06:03 METAR KSEG 221003Z AUTO 00000KT 2SM BR SCT004 OVC027 21/19 A2999 RMK AO2
                 T02060194 =
2014-08-22 05:53 METAR KSEG 220953Z AUTO 00000KT 2SM BR BKN004 OVC027 21/19 A2999 RMK AO2 SLP151
                 T02060194 =
2014-08-22 04:53 METAR KSEG 220853Z AUTO 00000KT 2 1/2SM BR OVC003 20/19 A2998 RMK AO2 SLP149
                 T02000194 58007 =
2014-08-22 03:14 METAR KSEG 220714Z AUTO 00000KT 1 3/4SM BR OVC002 20/19 A2999 RMK AO2 T02000194
                 =
2014-08-22 03:01 METAR KSEG 220701Z AUTO 18003KT 1SM BR OVC002 20/19 A2999 RMK AO2 T02000194 =
2014-08-22 02:53 METAR KSEG 220653Z AUTO 00000KT 3/4SM BR OVC002 20/19 A2999 RMK AO2 SLP153
                 T02000194 =
2014-08-22 02:03 METAR KSEG 220603Z AUTO VRB03KT 3/4SM BR OVC001 20/19 A2999 RMK AO2 T02000194 =
2014-08-22 01:53 METAR KSEG 220553Z AUTO 00000KT 1SM BR OVC002 20/19 A3000 RMK AO2 SLP155
                 T02000194 10217 20189 57002 =
2014-08-22 01:04 METAR KSEG 220504Z AUTO 00000KT 3/4SM BR OVC002 20/19 A3000 RMK AO2 T02000189 =
2014-08-22 01:00 METAR KSEG 220500Z AUTO 00000KT 1 1/4SM BR BKN002 20/19 A3000 RMK AO2 T02000189
                 =
2014-08-22 00:53 METAR KSEG 220453Z AUTO 00000KT 2SM BR BKN002 BKN043 20/19 A3000 RMK AO2 SLP155
                 T02000189 402780178 =
2014-08-22 00:49 METAR KSEG 220449Z AUTO 00000KT 2 1/2SM BR BKN002 BKN043 20/19 A3000 RMK AO2 =
2014-08-22 00:03 METAR KSEG 220403Z AUTO 00000KT 3SM BR FEW007 SCT042 BKN055 19/18 A3001 RMK AO2
                 T01940183 =
2014-08-21 23:53 METAR KSEG 220353Z AUTO 00000KT 3SM BR FEW044 BKN055 19/18 A3001 RMK AO2 SLP157
                 T01940183 =
2014-08-21 23:34 METAR KSEG 220334Z AUTO 00000KT 3SM BR SCT055 19/18 A3000 RMK AO2 T01940183 =

Support USWX by starting your Amazon purchase here.